createdAt,value
2019-05-01T06:05:21.001Z,25.10
2019-05-01T06:06:21.195Z,51.90
2019-05-01T06:07:15.536Z,52.70
2019-05-01T06:08:14.533Z,51.10
2019-05-01T06:53:42.153Z,41.50
2019-05-01T06:59:53.026Z,41.80
2019-05-01T07:00:51.832Z,43.40
2019-05-01T07:04:18.967Z,39.00
2019-05-01T07:05:18.490Z,42.80
2019-05-01T07:06:18.428Z,43.30
2019-05-01T07:07:25.061Z,44.00
2019-05-01T07:08:24.761Z,43.50
2019-05-01T07:09:27.777Z,43.70
2019-05-01T07:10:29.849Z,44.80
2019-05-01T07:24:59.089Z,35.70
2019-05-01T07:25:59.326Z,39.10
2019-05-01T07:33:07.515Z,37.00
2019-05-01T07:34:16.229Z,43.20
2019-05-01T07:36:32.834Z,37.10
2019-05-01T07:37:31.274Z,42.50
2019-05-01T07:38:32.915Z,43.50
2019-05-01T07:39:33.137Z,42.50
2019-05-01T07:40:31.139Z,43.80
2019-05-01T07:41:33.949Z,42.00
2019-05-01T07:42:32.115Z,42.70
2019-05-01T07:43:31.110Z,42.50
2019-05-01T07:44:33.910Z,43.50
2019-05-01T07:45:31.082Z,41.00
2019-05-01T07:46:31.066Z,42.30
2019-05-01T07:47:31.676Z,41.80
2019-05-01T07:48:31.100Z,42.10
2019-05-01T07:49:31.028Z,42.20
2019-05-01T07:50:32.638Z,42.90
2019-05-01T07:51:31.019Z,42.00
2019-05-01T07:52:31.010Z,42.50
2019-05-01T07:53:31.008Z,40.80
2019-05-01T07:54:30.980Z,41.60
2019-05-01T07:55:30.973Z,42.80
2019-05-01T07:56:30.944Z,42.90
2019-05-01T07:57:34.299Z,41.60
2019-05-01T08:00:08.208Z,38.90
2019-05-01T08:01:04.481Z,42.30
2019-05-01T08:02:03.726Z,40.00
2019-05-01T08:03:07.195Z,42.50
2019-05-01T08:04:04.565Z,42.10
2019-05-01T08:05:04.824Z,41.40
2019-05-01T08:06:04.712Z,41.80
2019-05-01T08:07:03.680Z,42.30
2019-05-01T08:08:07.845Z,40.90
2019-05-01T08:09:04.671Z,39.80
2019-05-01T08:10:03.623Z,39.30
2019-05-01T08:11:04.943Z,39.90
2019-05-01T08:12:03.606Z,40.00
2019-05-01T08:13:03.595Z,38.60
2019-05-01T08:14:07.603Z,39.20
2019-05-01T08:18:51.731Z,39.00
2019-05-01T08:21:01.543Z,36.30
2019-05-01T08:22:02.896Z,40.70
2019-05-01T08:23:01.502Z,41.20
2019-05-01T08:29:53.859Z,35.90
2019-05-01T08:33:55.973Z,34.80
2019-05-01T08:35:00.335Z,37.00
2019-05-01T08:35:56.574Z,35.60
2019-05-01T08:36:56.475Z,34.80
2019-05-01T08:39:14.793Z,28.50
2019-05-01T08:40:15.874Z,33.00
2019-05-01T08:41:15.540Z,35.40
2019-05-01T08:42:14.469Z,36.10
2019-05-01T08:46:57.186Z,32.50
2019-05-01T08:48:00.359Z,35.90
2019-05-01T08:53:52.754Z,32.20
2019-05-01T08:54:54.723Z,36.50
2019-05-01T08:56:01.571Z,35.00
2019-05-01T09:07:57.756Z,32.10
2019-05-01T09:08:55.362Z,37.00
2019-05-01T09:09:55.244Z,37.10
2019-05-01T09:11:00.403Z,37.00
2019-05-01T09:11:56.242Z,38.00
2019-05-01T09:19:52.178Z,34.20
2019-05-01T09:20:51.956Z,36.20
2019-05-01T09:21:51.983Z,36.70
2019-05-01T09:22:54.165Z,36.80
2019-05-01T09:25:35.279Z,35.40
2019-05-01T09:31:01.355Z,32.90
2019-05-01T09:34:55.024Z,35.20
2019-05-01T09:35:56.216Z,36.80
2019-05-01T09:36:54.576Z,36.80
2019-05-01T09:37:54.597Z,37.00
2019-05-01T09:42:01.743Z,33.30
2019-05-01T09:44:41.227Z,33.70
2019-05-01T09:45:41.178Z,36.70
2019-05-01T09:46:40.927Z,35.30
2019-05-01T09:52:55.042Z,35.20
2019-05-01T09:53:52.755Z,35.80
2019-05-01T09:54:51.700Z,36.30
2019-05-01T11:33:01.264Z,32.90
2019-05-01T11:34:01.249Z,36.00
2019-05-01T11:35:01.246Z,35.10
2019-05-01T11:36:09.207Z,35.50
2019-05-01T11:37:02.207Z,34.60
2019-05-01T11:38:01.210Z,35.40
2019-05-01T11:39:01.216Z,35.00
2019-05-01T11:40:01.178Z,34.60
2019-05-01T11:45:22.294Z,31.90
2019-05-01T11:46:29.329Z,35.50
2019-05-01T11:49:06.637Z,29.30
2019-05-01T11:56:29.173Z,33.40
2019-05-01T11:57:30.088Z,35.40
2019-05-01T11:58:29.034Z,35.00
2019-05-01T11:59:28.996Z,35.60
2019-05-01T12:02:02.503Z,30.60
2019-05-01T12:03:02.139Z,35.30
2019-05-01T12:04:02.130Z,36.30
2019-05-01T12:05:02.115Z,35.40
2019-05-01T12:06:02.123Z,35.40
2019-05-01T12:07:02.106Z,34.30
2019-05-01T12:08:02.085Z,35.80
2019-05-01T12:09:02.074Z,35.60
2019-05-01T12:10:02.078Z,36.20
2019-05-01T12:11:02.090Z,36.60
2019-05-01T12:12:02.055Z,35.20
2019-05-01T12:13:02.041Z,36.90
2019-05-01T12:14:02.029Z,34.90
2019-05-01T12:15:02.017Z,35.60
2019-05-01T12:16:02.058Z,35.60
2019-05-01T12:17:02.004Z,34.30
2019-05-01T12:18:01.991Z,35.10
2019-05-01T12:19:01.981Z,35.70
2019-05-01T12:20:01.973Z,35.90
2019-05-01T12:21:01.962Z,34.70
2019-05-01T12:22:01.972Z,35.00
2019-05-01T12:23:01.939Z,35.40
2019-05-01T12:24:01.929Z,34.50
2019-05-01T12:25:01.927Z,33.80
2019-05-01T12:26:01.921Z,35.80
2019-05-01T12:27:01.916Z,34.30
2019-05-01T12:28:01.890Z,35.70
2019-05-01T12:29:01.881Z,34.80
2019-05-01T12:30:01.870Z,35.20
2019-05-01T12:31:01.862Z,35.90
2019-05-01T12:32:01.869Z,34.30
2019-05-01T12:33:01.834Z,35.00
2019-05-01T12:34:01.825Z,33.80
2019-05-01T12:35:01.823Z,34.10
2019-05-01T12:36:01.807Z,34.50
2019-05-01T12:37:01.833Z,34.90
2019-05-01T12:38:01.792Z,35.00
2019-05-01T12:39:01.775Z,35.60
2019-05-01T12:40:01.781Z,35.50
2019-05-01T12:41:01.760Z,34.90
2019-05-01T12:42:01.747Z,35.00
2019-05-01T12:43:01.767Z,35.30
2019-05-01T12:44:01.729Z,35.60
2019-05-01T12:45:01.715Z,33.70
2019-05-01T12:46:01.704Z,32.20
2019-05-01T12:47:01.710Z,33.60
2019-05-01T12:48:01.689Z,33.60
2019-05-01T12:49:01.690Z,34.20
2019-05-01T12:50:01.674Z,32.80
2019-05-01T12:51:01.658Z,34.50
2019-05-01T12:52:10.212Z,34.10
2019-05-01T12:53:02.635Z,34.60
2019-05-01T12:54:01.639Z,32.60
2019-05-01T12:55:01.648Z,34.00
2019-05-01T12:56:01.606Z,34.60
2019-05-01T12:57:01.597Z,33.60
2019-05-01T12:58:01.616Z,34.90
2019-05-01T12:59:01.582Z,33.00
2019-05-01T13:00:08.362Z,34.00
2019-05-01T13:01:02.553Z,32.20
2019-05-01T13:02:01.557Z,33.30
2019-05-01T13:03:01.534Z,32.70
2019-05-01T13:04:01.548Z,32.90
2019-05-01T13:05:01.519Z,34.50
2019-05-01T13:06:01.513Z,32.40
2019-05-01T13:07:01.512Z,31.80
2019-05-01T13:08:01.492Z,33.50
2019-05-01T13:09:01.480Z,32.80
2019-05-01T13:10:01.476Z,32.60
2019-05-01T13:11:01.456Z,33.70
2019-05-01T13:12:01.454Z,32.80
2019-05-01T13:13:01.441Z,32.80
2019-05-01T13:14:01.428Z,33.50
2019-05-01T13:15:01.436Z,32.30
2019-05-01T13:16:01.446Z,33.10
2019-05-01T13:17:01.411Z,32.40
2019-05-01T13:18:01.391Z,33.70
2019-05-01T13:19:01.385Z,33.20
2019-05-01T13:20:01.411Z,32.70
2019-05-01T13:21:01.354Z,34.10
2019-05-01T13:22:01.348Z,33.60
2019-05-01T13:23:01.345Z,33.70
2019-05-01T13:24:01.332Z,32.50
2019-05-01T13:25:01.321Z,33.50
2019-05-01T13:26:01.346Z,33.30
2019-05-01T13:27:01.298Z,33.70
2019-05-01T13:28:01.302Z,34.00
2019-05-01T13:29:01.288Z,35.40
2019-05-01T13:30:01.280Z,34.60
2019-05-01T13:31:01.280Z,34.40
2019-05-01T13:32:01.246Z,33.90
2019-05-01T13:33:01.230Z,34.40
2019-05-01T13:34:01.225Z,36.00
2019-05-01T13:35:01.230Z,35.10
2019-05-01T13:36:01.235Z,34.10
2019-05-01T13:37:03.066Z,35.20
2019-05-01T13:38:01.214Z,34.60
2019-05-01T13:39:01.189Z,35.40
2019-05-01T13:40:01.156Z,33.70
2019-05-01T13:41:01.236Z,35.10
2019-05-01T13:42:01.152Z,35.20
2019-05-01T13:43:01.142Z,34.50
2019-05-01T13:44:01.121Z,36.10
2019-05-01T13:45:01.107Z,36.00
2019-05-01T13:46:01.113Z,34.40
2019-05-01T13:47:01.120Z,36.50
2019-05-01T13:48:01.078Z,35.50
2019-05-01T13:49:01.088Z,36.20
2019-05-01T13:50:01.061Z,34.90
2019-05-01T13:51:01.040Z,34.90
2019-05-01T13:52:01.048Z,35.90
2019-05-01T13:53:01.018Z,36.30
2019-05-01T13:54:01.006Z,36.90
2019-05-01T13:55:00.996Z,36.00
2019-05-01T13:56:00.990Z,35.90
2019-05-01T13:57:00.980Z,36.40
2019-05-01T13:58:00.986Z,36.70
2019-05-01T13:59:00.959Z,38.10
2019-05-01T14:00:00.945Z,37.30
2019-05-01T14:01:00.936Z,37.00
2019-05-01T14:02:00.922Z,36.00
2019-05-01T14:03:01.626Z,37.40
2019-05-01T14:04:00.900Z,30.40
2019-05-01T14:05:00.893Z,35.90
2019-05-01T14:06:00.879Z,30.70
2019-05-01T14:07:00.867Z,36.70
2019-05-01T14:08:00.868Z,38.40
2019-05-01T14:09:00.853Z,36.90
2019-05-01T14:10:00.840Z,37.30
2019-05-01T14:11:00.822Z,37.20
2019-05-01T14:12:00.832Z,35.40
2019-05-01T14:13:00.836Z,36.40
2019-05-01T14:14:00.795Z,38.80
2019-05-01T14:15:00.798Z,37.90
2019-05-01T14:16:00.766Z,36.60
2019-05-01T14:17:00.761Z,37.30
2019-05-01T14:18:00.795Z,37.10
2019-05-01T14:19:00.739Z,37.60
2019-05-01T14:20:00.727Z,37.40
2019-05-01T14:21:00.723Z,37.60
2019-05-01T14:22:00.712Z,36.50
2019-05-01T14:23:00.691Z,37.90
2019-05-01T14:24:00.717Z,37.80
2019-05-01T14:25:00.668Z,39.00
2019-05-01T14:26:00.666Z,38.20
2019-05-01T14:27:00.664Z,36.90
2019-05-01T14:28:00.635Z,37.40
2019-05-01T14:29:00.634Z,38.30
2019-05-01T14:30:00.630Z,38.80
2019-05-01T14:31:00.603Z,37.60
2019-05-01T14:32:00.630Z,37.50
2019-05-01T14:33:00.594Z,35.50
2019-05-01T14:34:00.603Z,37.20
2019-05-01T14:35:00.583Z,37.90
2019-05-01T14:36:00.583Z,36.80
2019-05-01T14:37:00.555Z,37.00
2019-05-01T14:38:00.544Z,38.10
2019-05-01T14:39:00.591Z,36.80
2019-05-01T14:40:00.525Z,36.10
2019-05-01T14:41:00.507Z,36.80
2019-05-01T14:42:00.495Z,35.40
2019-05-01T14:43:00.475Z,38.20
2019-05-01T14:44:00.460Z,37.10
2019-05-01T14:45:00.479Z,37.90
2019-05-01T14:46:00.438Z,38.00
2019-05-01T14:47:00.433Z,38.30
2019-05-01T14:48:00.419Z,37.00
2019-05-01T14:49:00.410Z,38.40
2019-05-01T14:50:00.417Z,38.10
2019-05-01T14:51:00.389Z,36.90
2019-05-01T14:52:00.381Z,32.30
2019-05-01T14:53:00.370Z,36.60
2019-05-01T14:54:00.358Z,35.10
2019-05-01T14:55:00.366Z,37.60
2019-05-01T14:56:00.340Z,37.50
2019-05-01T14:57:00.318Z,34.40
2019-05-01T14:58:00.312Z,37.30
2019-05-01T14:59:00.301Z,34.30
2019-05-01T15:00:00.296Z,36.50
2019-05-01T15:01:00.291Z,35.50
2019-05-01T15:02:00.266Z,37.40
2019-05-01T15:03:00.261Z,36.60
2019-05-01T15:04:00.249Z,36.20
2019-05-01T15:05:00.235Z,37.30
2019-05-01T15:06:00.234Z,36.50
2019-05-01T15:07:00.216Z,37.30
2019-05-01T15:08:00.202Z,36.50
2019-05-01T15:09:00.192Z,35.10
2019-05-01T15:10:00.183Z,35.90
2019-05-01T15:11:00.270Z,36.40
2019-05-01T15:12:00.165Z,37.90
2019-05-01T15:13:00.146Z,37.00
2019-05-01T15:14:00.135Z,38.40
2019-05-01T15:15:00.129Z,38.40
2019-05-01T15:16:00.117Z,37.10
2019-05-01T15:17:00.142Z,37.60
2019-05-01T15:18:00.094Z,36.70
2019-05-01T15:19:00.085Z,37.10
2019-05-01T15:20:00.071Z,37.20
2019-05-01T15:21:00.060Z,36.10
2019-05-01T15:22:00.049Z,36.00
2019-05-01T15:23:00.057Z,34.40
2019-05-01T15:24:00.025Z,31.00
2019-05-01T15:25:00.020Z,35.00
2019-05-01T15:26:00.009Z,33.20
2019-05-01T15:27:00.001Z,34.90
2019-05-01T15:27:59.984Z,32.90
2019-05-01T15:28:59.987Z,35.10
2019-05-01T15:29:59.969Z,36.90
2019-05-01T15:30:59.950Z,36.00
2019-05-01T15:31:59.939Z,35.60
2019-05-01T15:32:59.959Z,35.20
2019-05-01T15:33:59.919Z,35.10
2019-05-01T15:34:59.905Z,36.00
2019-05-01T15:35:59.907Z,36.00
2019-05-01T15:36:59.889Z,35.30
2019-05-01T15:37:59.881Z,36.30
2019-05-01T15:38:59.881Z,35.60
2019-05-01T15:39:59.856Z,34.90
2019-05-01T15:40:59.863Z,35.70
2019-05-01T15:41:59.831Z,35.60
2019-05-01T15:42:59.827Z,35.30
2019-05-01T15:43:59.822Z,34.50
2019-05-01T15:44:59.800Z,35.80
2019-05-01T15:45:59.795Z,36.50
2019-05-01T15:46:59.780Z,36.50
2019-05-01T15:47:59.768Z,36.40
2019-05-01T15:48:59.776Z,34.60
2019-05-01T15:49:59.749Z,35.60
2019-05-01T15:50:59.741Z,35.90
2019-05-01T15:51:59.727Z,35.60
2019-05-01T15:52:59.717Z,35.00
2019-05-01T15:53:59.723Z,36.90
2019-05-01T15:54:59.697Z,37.00
2019-05-01T15:55:59.682Z,35.20
2019-05-01T15:56:59.682Z,34.20
2019-05-01T15:57:59.666Z,33.80
2019-05-01T15:58:59.646Z,35.40
2019-05-01T15:59:59.660Z,36.40
2019-05-01T16:00:59.628Z,34.40
2019-05-01T16:01:59.618Z,35.60
2019-05-01T16:02:59.605Z,36.30
2019-05-01T16:03:59.597Z,36.30
2019-05-01T16:04:59.603Z,36.60
2019-05-01T16:05:59.581Z,36.20
2019-05-01T16:06:59.565Z,36.70
2019-05-01T16:08:09.198Z,35.50
2019-05-01T16:09:00.546Z,34.60
2019-05-01T16:09:59.549Z,35.00
2019-05-01T16:10:59.520Z,33.90
2019-05-01T16:11:59.509Z,35.20
2019-05-01T16:12:59.501Z,36.50
2019-05-01T16:13:59.485Z,34.10
2019-05-01T16:14:59.478Z,36.00
2019-05-01T16:15:59.481Z,35.50
2019-05-01T16:16:59.455Z,36.20
2019-05-01T16:17:59.445Z,35.40
2019-05-01T16:18:59.439Z,35.70
2019-05-01T16:19:59.425Z,36.20
2019-05-01T16:20:59.429Z,36.00
2019-05-01T16:21:59.405Z,36.60
2019-05-01T16:22:59.392Z,37.00
2019-05-01T16:23:59.384Z,36.70
2019-05-01T16:24:59.372Z,38.70
2019-05-01T16:25:59.543Z,38.20
2019-05-01T16:26:59.351Z,38.20
2019-05-01T16:27:59.342Z,37.10
2019-05-01T16:28:59.328Z,35.10
2019-05-01T16:29:59.317Z,36.30
2019-05-01T16:30:59.312Z,34.90
2019-05-01T16:31:59.311Z,35.60
2019-05-01T16:32:59.283Z,34.80
2019-05-01T16:33:59.279Z,35.50
2019-05-01T16:35:00.100Z,35.70
2019-05-01T16:35:59.254Z,35.70
2019-05-01T16:36:59.257Z,35.80
2019-05-01T16:37:59.230Z,35.20
2019-05-01T16:38:59.214Z,37.00
2019-05-01T16:39:59.208Z,38.00
2019-05-01T16:40:59.210Z,38.00
2019-05-01T16:41:59.186Z,38.30
2019-05-01T16:42:59.195Z,37.90
2019-05-01T16:43:59.162Z,38.80
2019-05-01T16:44:59.154Z,38.70
2019-05-01T16:45:59.723Z,39.10
2019-05-01T16:46:59.139Z,38.40
2019-05-01T16:47:59.116Z,39.10
2019-05-01T16:48:59.111Z,37.40
2019-05-01T16:49:59.094Z,38.30
2019-05-01T16:50:59.088Z,39.70
2019-05-01T16:51:59.085Z,38.10
2019-05-01T16:52:59.076Z,38.30
2019-05-01T16:53:59.055Z,38.60
2019-05-01T16:54:59.711Z,38.20
2019-05-01T16:55:59.028Z,38.20
2019-05-01T16:56:59.035Z,40.00
2019-05-01T16:57:59.021Z,38.80
2019-05-01T16:58:59.000Z,38.60
2019-05-01T16:59:58.992Z,38.10
2019-05-01T17:00:58.973Z,38.20
2019-05-01T17:01:58.980Z,38.70
2019-05-01T17:02:58.960Z,38.30
2019-05-01T17:03:58.957Z,38.60
2019-05-01T17:04:58.929Z,39.90
2019-05-01T17:05:58.924Z,40.20
2019-05-01T17:06:58.910Z,38.00
2019-05-01T17:07:58.902Z,38.70
2019-05-01T17:08:58.898Z,39.30
2019-05-01T17:09:58.883Z,38.50
2019-05-01T17:10:58.865Z,38.60
2019-05-01T17:11:58.882Z,38.60
2019-05-01T17:12:58.843Z,38.40
2019-05-01T17:13:58.850Z,38.40
2019-05-01T17:14:58.835Z,38.20
2019-05-01T17:15:58.826Z,40.50
2019-05-01T17:16:58.815Z,40.10
2019-05-01T17:17:58.795Z,38.10
2019-05-01T17:18:58.777Z,39.30
2019-05-01T17:19:58.801Z,40.00
2019-05-01T17:20:58.761Z,39.50
2019-05-01T17:21:58.767Z,39.30
2019-05-01T17:22:58.758Z,40.00
2019-05-01T17:23:58.728Z,39.00
2019-05-01T17:24:58.718Z,39.40
2019-05-01T17:25:58.718Z,41.10
2019-05-01T17:26:58.694Z,39.40
2019-05-01T17:28:02.773Z,39.00
2019-05-01T17:28:59.666Z,39.70
2019-05-01T17:29:58.660Z,39.50
2019-05-01T17:30:58.666Z,39.10
2019-05-01T17:31:58.634Z,40.00
2019-05-01T17:33:00.816Z,39.30
2019-05-01T17:33:58.617Z,38.70
2019-05-01T17:35:01.974Z,39.00
2019-05-01T17:35:59.607Z,39.50
2019-05-01T17:36:58.584Z,38.90
2019-05-01T17:37:58.574Z,39.90
2019-05-01T17:38:58.562Z,39.20
2019-05-01T17:39:58.603Z,38.90
2019-05-01T17:40:58.539Z,39.50
2019-05-01T17:42:02.086Z,40.20
2019-05-01T17:42:58.515Z,40.10
2019-05-01T17:43:58.502Z,39.30
2019-05-01T17:44:59.600Z,39.50
2019-05-01T17:45:58.483Z,39.60
2019-05-01T17:46:58.488Z,38.40
2019-05-01T17:47:59.647Z,39.70
2019-05-01T17:48:58.462Z,38.70
2019-05-01T17:49:58.435Z,40.10
2019-05-01T17:50:59.973Z,38.80
2019-05-01T17:51:58.460Z,38.90
2019-05-01T17:52:58.410Z,39.60
2019-05-01T17:53:58.402Z,39.80
2019-05-01T17:55:01.257Z,40.50
2019-05-01T17:55:58.373Z,39.10
2019-05-01T17:56:58.373Z,39.60
2019-05-01T17:57:58.353Z,39.50
2019-05-01T17:58:58.345Z,38.40
2019-05-01T17:59:58.326Z,38.30
2019-05-01T18:00:58.318Z,39.50
2019-05-01T18:01:58.351Z,39.50
2019-05-01T18:02:58.294Z,38.50
2019-05-01T18:03:58.290Z,39.10
2019-05-01T18:04:58.276Z,40.30
2019-05-01T18:06:01.304Z,39.20
2019-05-01T18:06:58.255Z,39.10
2019-05-01T18:07:58.254Z,39.40
2019-05-01T18:09:03.173Z,39.60
2019-05-01T18:09:59.223Z,38.70
2019-05-01T18:10:58.218Z,39.10
2019-05-01T18:11:58.204Z,38.80
2019-05-01T18:12:58.195Z,39.00
2019-05-01T18:13:58.176Z,40.20
2019-05-01T18:14:58.165Z,40.00
2019-05-01T18:15:58.162Z,39.50
2019-05-01T18:16:58.148Z,40.20
2019-05-01T18:17:58.153Z,39.90
2019-05-01T18:18:58.123Z,39.80
2019-05-01T18:19:58.117Z,39.70
2019-05-01T18:20:58.098Z,40.00
2019-05-01T18:21:58.087Z,39.50
2019-05-01T18:22:58.080Z,39.40
2019-05-01T18:23:58.089Z,39.90
2019-05-01T18:24:58.432Z,38.40
2019-05-01T18:25:58.045Z,39.80
2019-05-01T18:26:58.033Z,39.20
2019-05-01T18:27:58.048Z,40.00
2019-05-01T18:29:00.723Z,39.40
2019-05-01T18:29:59.003Z,39.20
2019-05-01T18:30:58.292Z,39.90
2019-05-01T18:31:57.978Z,39.00
2019-05-01T18:32:57.982Z,40.40
2019-05-01T18:34:02.494Z,40.40
2019-05-01T18:34:58.944Z,39.60
2019-05-01T18:35:57.945Z,39.40
2019-05-01T18:36:59.651Z,41.10
2019-05-01T18:37:57.932Z,39.60
2019-05-01T18:38:57.903Z,40.90
2019-05-01T18:39:57.888Z,40.20
2019-05-01T18:40:57.881Z,41.00
2019-05-01T18:41:57.877Z,40.40
2019-05-01T18:42:57.858Z,40.00
2019-05-01T18:43:57.863Z,41.10
2019-05-01T18:44:57.843Z,40.40
2019-05-01T18:45:57.828Z,40.80
2019-05-01T18:46:57.834Z,40.30
2019-05-01T18:47:57.806Z,39.20
2019-05-01T18:48:57.801Z,40.80
2019-05-01T18:49:57.782Z,41.10
2019-05-01T18:50:57.767Z,41.00
2019-05-01T18:51:57.760Z,42.40
2019-05-01T18:52:57.765Z,41.80
2019-05-01T18:53:58.843Z,40.50
2019-05-01T18:54:57.731Z,41.40
2019-05-01T18:56:01.423Z,41.00
2019-05-01T18:56:58.704Z,40.20
2019-05-01T18:57:57.694Z,41.50
2019-05-01T18:58:57.725Z,40.90
2019-05-01T18:59:57.674Z,41.50
2019-05-01T19:00:57.657Z,41.70
2019-05-01T19:01:57.658Z,41.70
2019-05-01T19:02:59.564Z,42.00
2019-05-01T19:03:58.646Z,41.00
2019-05-01T19:04:57.630Z,42.60
2019-05-01T19:05:57.613Z,41.70
2019-05-01T19:06:57.598Z,41.50
2019-05-01T19:07:57.587Z,42.40
2019-05-01T19:08:57.579Z,41.70
2019-05-01T19:09:57.582Z,41.60
2019-05-01T19:10:57.549Z,41.50
2019-05-01T19:11:57.555Z,43.60
2019-05-01T19:12:57.533Z,41.70
2019-05-01T19:13:57.525Z,40.90
2019-05-01T19:15:00.431Z,42.60
2019-05-01T19:15:58.545Z,43.40
2019-05-01T19:16:57.490Z,43.00
2019-05-01T19:17:57.481Z,44.10
2019-05-01T19:18:57.467Z,43.60
2019-05-01T19:19:57.458Z,44.10
2019-05-01T19:20:59.669Z,43.60
2019-05-01T19:21:57.449Z,44.10
2019-05-01T19:22:57.440Z,42.80
2019-05-01T19:24:00.642Z,44.90
2019-05-01T19:24:57.442Z,43.80
2019-05-01T19:26:04.920Z,43.90
2019-05-01T19:26:58.372Z,44.30
2019-05-01T19:27:57.364Z,44.00
2019-05-01T19:28:57.357Z,44.80
2019-05-01T19:29:58.040Z,43.00
2019-05-01T19:30:57.329Z,43.90
2019-05-01T19:31:57.421Z,44.50
2019-05-01T19:32:57.493Z,44.40
2019-05-01T19:33:57.505Z,45.90
2019-05-01T19:34:57.467Z,44.30
2019-05-01T19:35:57.383Z,45.50
2019-05-01T19:36:57.475Z,43.40
2019-05-01T19:37:58.941Z,45.00
2019-05-01T19:38:57.281Z,45.00
2019-05-01T19:39:57.248Z,44.20
2019-05-01T19:40:57.216Z,43.60
2019-05-01T19:41:57.229Z,45.10
2019-05-01T19:42:57.994Z,45.20
2019-05-01T19:43:57.184Z,45.10
2019-05-01T19:44:57.769Z,44.00
2019-05-01T19:45:57.171Z,44.50
2019-05-01T19:46:57.168Z,43.70
2019-05-01T19:47:57.217Z,44.10
2019-05-01T19:48:57.130Z,45.70
2019-05-01T19:50:06.652Z,44.80
2019-05-01T19:50:58.102Z,45.00
2019-05-01T19:52:00.740Z,45.60
2019-05-01T19:52:57.088Z,45.40
2019-05-01T19:53:57.077Z,46.00
2019-05-01T19:55:01.390Z,48.00
2019-05-01T19:55:58.076Z,46.10
2019-05-01T19:56:57.043Z,47.00
2019-05-01T19:57:57.029Z,46.70
2019-05-01T19:58:57.025Z,46.40
2019-05-01T19:59:57.026Z,46.10
2019-05-01T20:00:56.998Z,48.10
2019-05-01T20:01:56.996Z,47.20
2019-05-01T20:02:58.967Z,46.90
2019-05-01T20:03:56.982Z,46.30
2019-05-01T20:04:56.967Z,46.50
2019-05-01T20:05:59.523Z,46.30
2019-05-01T20:06:58.003Z,47.00
2019-05-01T20:07:57.907Z,47.30
2019-05-01T20:08:56.923Z,48.30
2019-05-01T20:09:57.365Z,48.10
2019-05-01T20:10:56.892Z,47.90
2019-05-01T20:11:56.877Z,46.60
2019-05-01T20:12:56.876Z,46.60
2019-05-01T20:13:56.870Z,47.60
2019-05-01T20:14:56.847Z,47.00
2019-05-01T20:15:56.839Z,48.20
2019-05-01T20:16:56.827Z,46.80
2019-05-01T20:17:56.815Z,47.50
2019-05-01T20:18:56.844Z,47.70
2019-05-01T20:19:56.803Z,48.40
2019-05-01T20:20:56.789Z,48.20
2019-05-01T20:21:56.795Z,46.20
2019-05-01T20:22:56.778Z,47.50
2019-05-01T20:23:56.758Z,47.70
2019-05-01T20:24:56.751Z,48.40
2019-05-01T20:25:57.269Z,49.50
2019-05-01T20:26:56.723Z,48.40
2019-05-01T20:27:57.369Z,48.20
2019-05-01T20:28:57.507Z,48.00
2019-05-01T20:29:56.690Z,48.30
2019-05-01T20:30:56.681Z,48.40
2019-05-01T20:31:56.666Z,48.00
2019-05-01T20:32:58.226Z,49.80
2019-05-01T20:33:57.667Z,48.20
2019-05-01T20:34:59.244Z,48.60
2019-05-01T20:36:00.524Z,49.70
2019-05-01T20:36:57.615Z,49.10
2019-05-01T20:37:56.600Z,49.00
2019-05-01T20:38:56.586Z,49.00
2019-05-01T20:40:10.126Z,48.00
2019-05-01T20:40:57.562Z,48.10
2019-05-01T20:41:56.558Z,48.10
2019-05-01T20:42:56.546Z,48.80
2019-05-01T20:43:56.537Z,45.60
2019-05-01T20:45:04.460Z,49.30
2019-05-01T20:45:57.558Z,47.30
2019-05-01T20:46:58.543Z,48.70
2019-05-01T20:47:57.492Z,50.60
2019-05-01T20:49:00.950Z,49.30
2019-05-01T20:49:57.476Z,48.50
2019-05-01T20:50:56.455Z,49.00
2019-05-01T20:51:56.482Z,47.90
2019-05-01T20:52:56.445Z,48.80
2019-05-01T20:53:56.424Z,48.80
2019-05-01T20:54:56.422Z,47.50
2019-05-01T20:55:56.405Z,46.70
2019-05-01T20:56:56.389Z,48.80
2019-05-01T20:57:56.392Z,47.40
2019-05-01T20:58:57.825Z,49.90
2019-05-01T20:59:57.368Z,48.00
2019-05-01T21:00:56.351Z,47.80
2019-05-01T21:01:59.660Z,45.30
2019-05-01T21:02:57.321Z,47.50
2019-05-01T21:03:57.280Z,48.00
2019-05-01T21:04:56.312Z,50.60
2019-05-01T21:05:56.292Z,47.70
2019-05-01T21:06:56.278Z,49.20
2019-05-01T21:07:58.077Z,49.00
2019-05-01T21:08:56.261Z,47.70
2019-05-01T21:09:57.696Z,46.80
2019-05-01T21:10:56.238Z,48.30
2019-05-01T21:12:04.954Z,46.70
2019-05-01T21:12:57.214Z,46.10
2019-05-01T21:14:15.598Z,49.60
2019-05-01T21:14:57.207Z,46.70
2019-05-01T21:16:01.146Z,47.20
2019-05-01T21:16:57.173Z,49.60
2019-05-01T21:17:56.156Z,47.60
2019-05-01T21:18:56.148Z,49.10
2019-05-01T21:19:56.152Z,45.30
2019-05-01T21:20:56.141Z,44.50
2019-05-01T21:21:56.131Z,48.00
2019-05-01T21:22:56.100Z,47.20
2019-05-01T21:23:56.837Z,48.40
2019-05-01T21:24:56.094Z,49.70
2019-05-01T21:25:56.093Z,50.10
2019-05-01T21:26:56.063Z,50.80
2019-05-01T21:27:56.061Z,52.10
2019-05-01T21:28:56.036Z,53.20
2019-05-01T21:29:56.030Z,51.90
2019-05-01T21:30:56.016Z,53.70
2019-05-01T21:31:56.039Z,52.10
2019-05-01T21:32:59.033Z,53.80
2019-05-01T21:33:56.989Z,52.80
2019-05-01T21:34:55.971Z,53.80
2019-05-01T21:35:59.561Z,53.20
2019-05-01T21:36:56.961Z,53.70
2019-05-01T21:37:55.939Z,53.60
2019-05-01T21:38:55.935Z,53.30
2019-05-01T21:39:55.921Z,54.60
2019-05-01T21:40:55.908Z,52.50
2019-05-01T21:41:55.908Z,54.80
2019-05-01T21:42:55.938Z,53.30
2019-05-01T21:43:55.868Z,53.20
2019-05-01T21:44:55.856Z,54.80
2019-05-01T21:45:55.849Z,53.60
2019-05-01T21:46:55.837Z,52.70
2019-05-01T21:47:55.861Z,53.80
2019-05-01T21:48:55.820Z,53.90
2019-05-01T21:49:55.809Z,54.60
2019-05-01T21:50:57.967Z,53.00
2019-05-01T21:51:56.781Z,52.80
2019-05-01T21:52:58.073Z,52.50
2019-05-01T21:53:56.781Z,53.90
2019-05-01T21:54:57.012Z,54.30
2019-05-01T21:55:55.738Z,53.40
2019-05-01T21:56:55.732Z,54.50
2019-05-01T21:57:55.718Z,52.90
2019-05-01T21:58:59.481Z,54.70
2019-05-01T21:59:56.700Z,52.90
2019-05-01T22:00:59.674Z,51.90
2019-05-01T22:01:55.679Z,51.30
2019-05-01T22:02:55.682Z,51.10
2019-05-01T22:03:57.092Z,51.60
2019-05-01T22:04:55.642Z,49.90
2019-05-01T22:05:55.634Z,45.90
2019-05-01T22:06:55.619Z,47.20
2019-05-01T22:07:58.795Z,47.40
2019-05-01T22:08:56.599Z,47.50
2019-05-01T22:09:55.609Z,46.40
2019-05-01T22:10:57.583Z,44.70
2019-05-01T22:11:56.562Z,45.20
2019-05-01T22:12:55.558Z,44.70
2019-05-01T22:14:00.204Z,44.20
2019-05-01T22:14:56.545Z,42.90
2019-05-01T22:15:55.535Z,43.50
2019-05-01T22:16:56.931Z,42.40
2019-05-01T22:17:55.495Z,42.90
2019-05-01T22:18:55.506Z,41.50
2019-05-01T22:19:55.480Z,42.40
2019-05-01T22:20:55.473Z,42.10
2019-05-01T22:21:55.476Z,40.10
2019-05-01T22:22:55.446Z,40.80
2019-05-01T22:23:55.435Z,39.90
2019-05-01T22:24:55.422Z,40.50
2019-05-01T22:25:55.418Z,39.20
2019-05-01T22:26:55.397Z,40.40
2019-05-01T22:27:55.399Z,40.30
2019-05-01T22:28:56.117Z,37.70
2019-05-01T22:29:57.045Z,38.90
2019-05-01T22:30:55.375Z,39.20
2019-05-01T22:31:57.542Z,39.40
2019-05-01T22:32:55.333Z,40.00
2019-05-01T22:33:55.323Z,40.50
2019-05-01T22:34:55.331Z,39.20
2019-05-01T22:35:55.302Z,38.50
2019-05-01T22:36:55.289Z,39.40
2019-05-01T22:37:55.282Z,39.70
2019-05-01T22:38:55.311Z,39.60
2019-05-01T22:39:55.263Z,40.20
2019-05-01T22:41:06.160Z,40.80
2019-05-01T22:41:56.246Z,39.70
2019-05-01T22:42:55.231Z,40.80
2019-05-01T22:43:55.215Z,40.20
2019-05-01T22:44:55.201Z,41.10
2019-05-01T22:45:56.196Z,42.60
2019-05-01T22:46:56.206Z,40.80
2019-05-01T22:47:55.188Z,40.20
2019-05-01T22:48:55.221Z,40.40
2019-05-01T22:49:55.154Z,42.10
2019-05-01T22:50:55.157Z,40.80
2019-05-01T22:51:55.133Z,41.30
2019-05-01T22:52:55.117Z,40.80
2019-05-01T22:53:55.109Z,40.00
2019-05-01T22:54:55.097Z,40.00
2019-05-01T22:55:57.218Z,41.10
2019-05-01T22:56:56.076Z,40.10
2019-05-01T22:57:55.064Z,40.80
2019-05-01T22:58:55.056Z,39.90
2019-05-01T22:59:55.045Z,40.60
2019-05-01T23:00:55.052Z,39.20
2019-05-01T23:01:55.048Z,40.20
2019-05-01T23:02:55.018Z,40.70
2019-05-01T23:03:55.000Z,40.50